createdAt,value
2018-02-09T00:00:14.931Z,85.90
2018-02-09T00:02:46.634Z,85.70
2018-02-09T00:05:15.355Z,86.60
2018-02-09T00:07:43.055Z,85.90
2018-02-09T00:10:14.177Z,86.00
2018-02-09T00:12:42.969Z,85.30
2018-02-09T00:15:10.597Z,85.00
2018-02-09T00:17:38.180Z,85.70
2018-02-09T00:20:05.757Z,86.10
2018-02-09T00:22:44.891Z,84.70
2018-02-09T00:25:12.457Z,84.80
2018-02-09T00:27:40.053Z,85.30
2018-02-09T00:30:07.616Z,84.90
2018-02-09T00:32:35.195Z,85.30
2018-02-09T00:35:02.805Z,85.10
2018-02-09T00:37:30.357Z,85.30
2018-02-09T00:39:57.912Z,85.30
2018-02-09T00:42:25.477Z,84.80
2018-02-09T00:44:53.203Z,85.30
2018-02-09T00:47:20.943Z,85.10
2018-02-09T00:49:48.572Z,84.00
2018-02-09T00:52:16.125Z,85.40
2018-02-09T00:54:43.673Z,85.70
2018-02-09T00:57:11.239Z,85.30
2018-02-09T00:59:38.796Z,85.90
2018-02-09T01:02:06.320Z,85.60
2018-02-09T01:04:33.866Z,85.60
2018-02-09T01:07:01.413Z,85.70
2018-02-09T01:09:28.972Z,85.70
2018-02-09T01:11:56.549Z,85.70
2018-02-09T01:14:24.148Z,85.70
2018-02-09T01:16:52.023Z,85.40
2018-02-09T01:19:20.573Z,85.40
2018-02-09T01:21:48.206Z,85.60
2018-02-09T01:24:15.745Z,84.80
2018-02-09T01:26:43.301Z,85.00
2018-02-09T01:29:10.844Z,85.30
2018-02-09T01:31:38.376Z,85.50
2018-02-09T01:34:05.946Z,85.30
2018-02-09T01:36:33.595Z,85.40
2018-02-09T01:39:01.247Z,85.10
2018-02-09T01:41:28.784Z,85.60
2018-02-09T01:43:56.321Z,85.50
2018-02-09T01:46:23.877Z,85.60
2018-02-09T01:48:51.425Z,85.30
2018-02-09T01:51:19.053Z,85.00
2018-02-09T01:53:46.644Z,84.90
2018-02-09T01:56:14.391Z,85.00
2018-02-09T01:58:41.950Z,84.60
2018-02-09T02:01:09.498Z,84.50
2018-02-09T02:03:37.035Z,85.10
2018-02-09T02:06:04.599Z,84.70
2018-02-09T02:08:32.195Z,85.00
2018-02-09T02:10:59.835Z,85.40
2018-02-09T02:13:27.436Z,84.80
2018-02-09T02:15:55.030Z,85.10
2018-02-09T02:18:22.651Z,84.90
2018-02-09T02:20:50.702Z,85.80
2018-02-09T02:23:18.409Z,84.60
2018-02-09T02:25:46.042Z,85.40
2018-02-09T02:28:13.585Z,84.90
2018-02-09T02:30:41.174Z,85.10
2018-02-09T02:33:08.804Z,85.40
2018-02-09T02:35:36.433Z,85.30
2018-02-09T02:38:04.045Z,85.20
2018-02-09T02:40:31.614Z,85.00
2018-02-09T02:42:59.173Z,85.20
2018-02-09T02:45:27.046Z,85.10
2018-02-09T02:47:54.853Z,84.40
2018-02-09T02:50:22.552Z,85.00
2018-02-09T02:52:50.170Z,84.40
2018-02-09T02:55:17.779Z,85.40
2018-02-09T02:57:45.539Z,85.40
2018-02-09T03:00:13.179Z,84.90
2018-02-09T03:02:40.705Z,85.30
2018-02-09T03:05:08.252Z,85.70
2018-02-09T03:07:35.809Z,85.60
2018-02-09T03:10:03.364Z,85.40
2018-02-09T03:12:31.645Z,85.20
2018-02-09T03:14:59.168Z,85.70
2018-02-09T03:17:26.735Z,85.70
2018-02-09T03:19:54.260Z,86.10
2018-02-09T03:22:21.804Z,86.50
2018-02-09T03:24:49.352Z,86.70
2018-02-09T03:27:16.901Z,86.40
2018-02-09T03:29:44.491Z,86.40
2018-02-09T03:32:12.273Z,86.10
2018-02-09T03:34:40.599Z,86.00
2018-02-09T03:37:08.187Z,85.40
2018-02-09T03:39:35.808Z,86.00
2018-02-09T03:42:03.389Z,86.00
2018-02-09T03:44:30.993Z,85.50
2018-02-09T03:46:58.553Z,85.90
2018-02-09T03:49:26.110Z,86.30
2018-02-09T03:51:53.682Z,86.10
2018-02-09T03:54:21.262Z,86.20
2018-02-09T03:56:48.816Z,86.10
2018-02-09T03:59:16.354Z,86.20
2018-02-09T04:01:43.908Z,86.30
2018-02-09T04:04:11.457Z,86.20
2018-02-09T04:06:39.003Z,86.40
2018-02-09T04:09:06.529Z,86.30
2018-02-09T04:11:34.093Z,86.50
2018-02-09T04:14:01.622Z,86.20
2018-02-09T04:16:29.186Z,86.70
2018-02-09T04:18:56.737Z,86.40
2018-02-09T04:21:24.312Z,86.30
2018-02-09T04:23:51.864Z,86.40
2018-02-09T04:26:19.424Z,86.20
2018-02-09T04:28:46.957Z,86.00
2018-02-09T04:31:14.549Z,87.00
2018-02-09T04:33:42.113Z,86.40
2018-02-09T04:36:09.648Z,86.30
2018-02-09T04:38:37.196Z,86.50
2018-02-09T04:41:04.758Z,86.40
2018-02-09T04:43:32.319Z,86.70
2018-02-09T04:45:59.945Z,86.50
2018-02-09T04:48:27.564Z,86.40
2018-02-09T04:50:55.093Z,85.80
2018-02-09T04:53:22.636Z,86.10
2018-02-09T04:55:50.168Z,86.20
2018-02-09T04:58:17.734Z,86.30
2018-02-09T05:00:45.309Z,86.10
2018-02-09T05:03:12.851Z,86.50
2018-02-09T05:05:40.384Z,86.60
2018-02-09T05:08:07.940Z,86.70
2018-02-09T05:10:35.500Z,86.10
2018-02-09T05:13:03.082Z,85.70
2018-02-09T05:15:31.582Z,85.90
2018-02-09T05:17:59.117Z,85.90
2018-02-09T05:20:27.021Z,85.80
2018-02-09T05:22:54.560Z,86.20
2018-02-09T05:25:22.101Z,86.30
2018-02-09T05:27:49.673Z,86.80
2018-02-09T05:30:17.224Z,86.90
2018-02-09T05:32:44.776Z,87.10
2018-02-09T05:35:12.311Z,87.10
2018-02-09T05:37:39.866Z,87.60
2018-02-09T05:40:07.430Z,86.20
2018-02-09T05:42:35.003Z,86.40
2018-02-09T05:45:02.672Z,86.20
2018-02-09T05:47:31.265Z,86.00
2018-02-09T05:49:58.804Z,85.60
2018-02-09T05:52:26.382Z,85.70
2018-02-09T05:54:53.904Z,85.60
2018-02-09T05:57:21.501Z,85.30
2018-02-09T05:59:49.076Z,85.30
2018-02-09T06:02:16.686Z,85.10
2018-02-09T06:04:44.314Z,85.00
2018-02-09T06:07:11.852Z,84.90
2018-02-09T06:09:39.605Z,84.70
2018-02-09T06:12:07.186Z,84.30
2018-02-09T06:14:34.783Z,84.00
2018-02-09T06:17:02.366Z,85.30
2018-02-09T06:19:30.008Z,81.30
2018-02-09T06:21:57.579Z,84.70
2018-02-09T06:24:31.312Z,87.90
2018-02-09T06:26:58.899Z,85.40
2018-02-09T06:29:26.460Z,85.40
2018-02-09T06:31:54.017Z,88.20
2018-02-09T06:34:21.581Z,85.80
2018-02-09T06:36:49.109Z,85.20
2018-02-09T06:39:16.660Z,85.50
2018-02-09T06:41:44.302Z,85.40
2018-02-09T06:44:11.885Z,86.10
2018-02-09T06:46:39.424Z,85.70
2018-02-09T06:49:06.966Z,85.70
2018-02-09T06:51:34.504Z,85.60
2018-02-09T06:54:02.089Z,85.90
2018-02-09T06:56:29.632Z,85.60
2018-02-09T06:58:57.194Z,85.60
2018-02-09T07:01:24.733Z,85.70
2018-02-09T07:03:52.285Z,85.80
2018-02-09T07:06:19.800Z,85.80
2018-02-09T07:08:47.361Z,86.20
2018-02-09T07:11:14.889Z,85.00
2018-02-09T07:13:42.461Z,84.50
2018-02-09T07:16:10.012Z,84.10
2018-02-09T07:18:37.576Z,84.30
2018-02-09T07:21:05.137Z,82.60
2018-02-09T07:23:32.682Z,82.60
2018-02-09T07:26:00.303Z,81.00
2018-02-09T07:28:27.846Z,80.70
2018-02-09T07:30:55.395Z,80.90
2018-02-09T07:33:23.020Z,80.60
2018-02-09T07:35:50.921Z,79.30
2018-02-09T07:38:18.545Z,80.10
2018-02-09T07:40:46.106Z,79.90
2018-02-09T07:43:13.755Z,79.90
2018-02-09T07:45:41.268Z,80.70
2018-02-09T07:48:09.587Z,80.40
2018-02-09T07:50:37.148Z,79.90
2018-02-09T07:53:04.696Z,80.60
2018-02-09T07:55:32.257Z,80.20
2018-02-09T07:57:59.794Z,80.40
2018-02-09T08:00:27.368Z,79.20
2018-02-09T08:02:54.886Z,79.00
2018-02-09T08:05:22.417Z,78.70
2018-02-09T08:07:49.968Z,77.90
2018-02-09T08:10:17.528Z,78.10
2018-02-09T08:12:45.104Z,77.30
2018-02-09T08:15:12.646Z,77.10
2018-02-09T08:17:40.177Z,77.00
2018-02-09T08:20:07.737Z,77.00
2018-02-09T08:22:35.261Z,76.50
2018-02-09T08:25:02.833Z,74.80
2018-02-09T08:27:30.403Z,73.70
2018-02-09T08:29:57.960Z,74.20
2018-02-09T08:32:25.517Z,76.90
2018-02-09T08:34:53.076Z,75.00
2018-02-09T08:37:20.668Z,74.90
2018-02-09T08:39:48.295Z,74.40
2018-02-09T08:42:15.851Z,72.40
2018-02-09T08:44:43.424Z,73.00
2018-02-09T08:47:10.993Z,73.70
2018-02-09T08:49:38.552Z,73.20
2018-02-09T08:52:06.118Z,73.70
2018-02-09T08:54:33.689Z,72.90
2018-02-09T08:57:01.225Z,72.00
2018-02-09T08:59:28.848Z,71.80
2018-02-09T09:01:56.437Z,71.60
2018-02-09T09:04:24.040Z,69.30
2018-02-09T09:06:51.628Z,69.40
2018-02-09T09:09:19.213Z,70.40
2018-02-09T09:11:47.647Z,69.00
2018-02-09T09:14:15.245Z,68.30
2018-02-09T09:16:42.829Z,70.00
2018-02-09T09:19:10.376Z,70.90
2018-02-09T09:21:38.075Z,70.50
2018-02-09T09:24:07.308Z,69.50
2018-02-09T09:26:34.933Z,70.60
2018-02-09T09:29:05.425Z,68.50
2018-02-09T09:31:33.227Z,67.00
2018-02-09T09:34:00.842Z,67.10
2018-02-09T09:36:29.975Z,67.30
2018-02-09T09:38:57.556Z,67.70
2018-02-09T09:41:25.173Z,67.80
2018-02-09T09:43:52.806Z,67.40
2018-02-09T09:46:20.477Z,66.40
2018-02-09T09:48:48.222Z,66.60
2018-02-09T09:51:16.023Z,66.50
2018-02-09T09:53:47.415Z,66.60
2018-02-09T09:56:15.105Z,67.60
2018-02-09T09:58:42.895Z,65.70
2018-02-09T10:01:16.972Z,66.10
2018-02-09T10:03:44.665Z,66.10
2018-02-09T10:06:12.481Z,65.00
2018-02-09T10:08:40.212Z,64.70
2018-02-09T10:11:07.962Z,65.50
2018-02-09T10:13:35.707Z,66.50
2018-02-09T10:16:05.189Z,67.40
2018-02-09T10:18:32.948Z,66.80
2018-02-09T10:21:01.648Z,65.90
2018-02-09T10:23:29.331Z,67.00
2018-02-09T10:25:56.911Z,69.40
2018-02-09T10:28:25.254Z,70.70
2018-02-09T10:30:52.973Z,69.80
2018-02-09T10:33:20.993Z,69.20
2018-02-09T10:35:49.649Z,67.30
2018-02-09T10:38:17.319Z,67.00
2018-02-09T10:40:45.068Z,66.60
2018-02-09T10:43:12.782Z,63.20
2018-02-09T10:45:40.443Z,65.40
2018-02-09T10:48:08.029Z,64.30
2018-02-09T10:50:35.638Z,64.30
2018-02-09T10:53:03.246Z,64.50
2018-02-09T10:55:31.637Z,68.00
2018-02-09T10:57:59.263Z,67.90
2018-02-09T11:00:32.491Z,65.90
2018-02-09T11:03:00.156Z,66.90
2018-02-09T11:05:27.757Z,66.60
2018-02-09T11:07:55.362Z,66.10
2018-02-09T11:10:28.641Z,66.00
2018-02-09T11:12:57.622Z,66.60
2018-02-09T11:15:25.401Z,62.70
2018-02-09T11:17:52.964Z,61.50
2018-02-09T11:20:20.526Z,61.10
2018-02-09T11:22:48.170Z,61.70
2018-02-09T11:25:15.723Z,59.20
2018-02-09T11:27:43.340Z,61.00
2018-02-09T11:30:10.859Z,61.60
2018-02-09T11:32:38.390Z,60.90
2018-02-09T11:35:05.922Z,58.30
2018-02-09T11:37:33.472Z,60.80
2018-02-09T11:40:01.016Z,58.40
2018-02-09T11:42:28.555Z,60.50
2018-02-09T11:44:56.085Z,62.40
2018-02-09T11:47:23.624Z,63.20
2018-02-09T11:49:51.159Z,61.80
2018-02-09T11:52:18.697Z,60.60
2018-02-09T11:54:46.213Z,60.00
2018-02-09T11:57:13.791Z,62.30
2018-02-09T11:59:41.321Z,61.30
2018-02-09T12:02:08.907Z,59.90
2018-02-09T12:04:36.482Z,60.90
2018-02-09T12:07:04.042Z,59.50
2018-02-09T12:09:31.644Z,59.10
2018-02-09T12:11:59.181Z,62.50
2018-02-09T12:14:26.728Z,61.30
2018-02-09T12:16:54.334Z,61.40
2018-02-09T12:19:21.882Z,60.80
2018-02-09T12:21:49.471Z,62.50
2018-02-09T12:24:16.992Z,60.20
2018-02-09T12:26:44.518Z,60.30
2018-02-09T12:29:12.045Z,60.40
2018-02-09T12:31:39.582Z,61.00
2018-02-09T12:34:07.147Z,60.90
2018-02-09T12:36:34.696Z,60.90
2018-02-09T12:39:02.245Z,61.30
2018-02-09T12:41:29.801Z,63.70
2018-02-09T12:43:57.388Z,61.80
2018-02-09T12:46:24.884Z,62.10
2018-02-09T12:48:52.480Z,60.40
2018-02-09T12:51:20.038Z,57.50
2018-02-09T12:53:47.588Z,58.50
2018-02-09T12:56:15.116Z,55.10
2018-02-09T12:58:42.663Z,54.10
2018-02-09T13:01:10.182Z,52.90
2018-02-09T13:03:37.752Z,51.40
2018-02-09T13:06:05.321Z,51.00
2018-02-09T13:08:32.909Z,48.90
2018-02-09T13:11:00.506Z,49.80
2018-02-09T13:13:28.056Z,52.60
2018-02-09T13:15:55.597Z,54.90
2018-02-09T13:18:34.923Z,55.10
2018-02-09T13:21:02.442Z,57.60
2018-02-09T13:23:41.560Z,58.40
2018-02-09T13:26:09.076Z,59.60
2018-02-09T13:28:48.579Z,61.20
2018-02-09T13:31:16.114Z,58.30
2018-02-09T13:33:43.658Z,58.40
2018-02-09T13:36:14.777Z,58.90
2018-02-09T13:38:46.290Z,61.70
2018-02-09T13:41:16.109Z,61.10
2018-02-09T13:43:43.633Z,64.80
2018-02-09T13:46:11.140Z,62.10
2018-02-09T13:48:38.706Z,61.70
2018-02-09T13:51:06.255Z,61.80
2018-02-09T13:53:33.796Z,61.90
2018-02-09T13:56:02.049Z,63.00
2018-02-09T13:58:29.593Z,62.00
2018-02-09T14:00:57.109Z,63.20
2018-02-09T14:03:25.652Z,62.60
2018-02-09T14:05:53.258Z,61.50
2018-02-09T14:08:20.824Z,61.70
2018-02-09T14:10:48.367Z,61.90
2018-02-09T14:13:15.905Z,61.40
2018-02-09T14:15:43.420Z,59.60
2018-02-09T14:18:10.954Z,61.00
2018-02-09T14:20:38.576Z,63.80
2018-02-09T14:23:06.138Z,60.70
2018-02-09T14:25:33.677Z,59.50
2018-02-09T14:28:01.208Z,59.30
2018-02-09T14:30:28.740Z,59.60
2018-02-09T14:32:56.272Z,59.70
2018-02-09T14:35:27.468Z,61.70
2018-02-09T14:38:00.846Z,59.90
2018-02-09T14:40:29.154Z,57.50
2018-02-09T14:42:56.730Z,56.80
2018-02-09T14:45:24.305Z,58.80
2018-02-09T14:47:51.869Z,59.60
2018-02-09T14:50:19.437Z,60.10
2018-02-09T14:52:46.994Z,61.70
2018-02-09T14:55:14.636Z,61.90
2018-02-09T14:57:42.310Z,62.40
2018-02-09T15:00:09.841Z,61.50
2018-02-09T15:02:37.369Z,61.80
2018-02-09T15:05:04.976Z,62.80
2018-02-09T15:07:32.514Z,62.00
2018-02-09T15:10:00.073Z,61.90
2018-02-09T15:12:27.749Z,62.70
2018-02-09T15:14:55.309Z,65.00
2018-02-09T15:17:23.661Z,65.40
2018-02-09T15:19:51.230Z,65.80
2018-02-09T15:22:18.775Z,65.40
2018-02-09T15:24:46.361Z,64.70
2018-02-09T15:27:13.917Z,65.20
2018-02-09T15:29:41.473Z,67.40
2018-02-09T15:32:09.002Z,65.70
2018-02-09T15:34:36.527Z,67.10
2018-02-09T15:37:04.083Z,66.50
2018-02-09T15:39:31.695Z,68.00
2018-02-09T15:41:59.221Z,69.70
2018-02-09T15:44:26.776Z,69.10
2018-02-09T15:46:54.293Z,68.90
2018-02-09T15:49:21.825Z,70.30
2018-02-09T15:51:49.386Z,69.10
2018-02-09T15:54:16.945Z,68.90
2018-02-09T15:56:44.481Z,69.80
2018-02-09T15:59:12.008Z,69.80
2018-02-09T16:01:39.561Z,70.70
2018-02-09T16:04:07.102Z,70.70
2018-02-09T16:06:34.658Z,70.80
2018-02-09T16:09:02.213Z,70.40
2018-02-09T16:11:29.762Z,71.20
2018-02-09T16:13:57.298Z,71.20
2018-02-09T16:16:24.868Z,70.90
2018-02-09T16:18:52.388Z,71.90
2018-02-09T16:21:19.969Z,71.50
2018-02-09T16:23:47.539Z,72.30
2018-02-09T16:26:15.100Z,70.70
2018-02-09T16:28:42.642Z,72.90
2018-02-09T16:31:10.201Z,72.70
2018-02-09T16:33:37.896Z,73.40
2018-02-09T16:36:05.477Z,74.20
2018-02-09T16:38:33.017Z,74.20
2018-02-09T16:41:00.677Z,74.10
2018-02-09T16:43:28.260Z,74.90
2018-02-09T16:45:55.815Z,75.20
2018-02-09T16:48:23.341Z,75.10
2018-02-09T16:50:50.905Z,75.10
2018-02-09T16:53:18.470Z,75.10
2018-02-09T16:55:46.028Z,75.60
2018-02-09T16:58:13.592Z,76.00
2018-02-09T17:00:41.140Z,76.40
2018-02-09T17:03:08.733Z,77.00
2018-02-09T17:05:37.011Z,77.10
2018-02-09T17:08:04.579Z,77.00
2018-02-09T17:10:32.224Z,77.20
2018-02-09T17:12:59.745Z,76.80
2018-02-09T17:15:27.361Z,76.50
2018-02-09T17:17:54.874Z,77.00
2018-02-09T17:20:22.419Z,77.10
2018-02-09T17:22:50.097Z,77.70
2018-02-09T17:25:17.671Z,76.50
2018-02-09T17:27:45.229Z,76.60
2018-02-09T17:30:12.752Z,76.40
2018-02-09T17:32:40.321Z,76.60
2018-02-09T17:35:07.881Z,76.50
2018-02-09T17:37:35.429Z,76.00
2018-02-09T17:40:02.966Z,75.40
2018-02-09T17:42:30.506Z,75.00
2018-02-09T17:44:58.043Z,75.10
2018-02-09T17:47:25.580Z,74.50
2018-02-09T17:49:53.096Z,74.10
2018-02-09T17:52:20.690Z,74.80
2018-02-09T17:54:48.263Z,74.90
2018-02-09T17:57:15.809Z,74.70
2018-02-09T17:59:43.365Z,74.80
2018-02-09T18:02:10.941Z,74.30
2018-02-09T18:04:38.537Z,74.20
2018-02-09T18:07:06.063Z,74.20
2018-02-09T18:09:33.613Z,72.70
2018-02-09T18:12:01.265Z,73.50
2018-02-09T18:14:28.785Z,73.90
2018-02-09T18:16:56.314Z,73.40
2018-02-09T18:19:23.849Z,73.60
2018-02-09T18:21:51.397Z,73.90
2018-02-09T18:24:19.790Z,72.30
2018-02-09T18:26:47.345Z,73.20
2018-02-09T18:29:15.461Z,73.10
2018-02-09T18:31:42.973Z,73.00
2018-02-09T18:34:10.540Z,72.30
2018-02-09T18:36:38.097Z,72.70
2018-02-09T18:39:05.678Z,72.40
2018-02-09T18:41:33.204Z,72.80
2018-02-09T18:44:00.795Z,73.00
2018-02-09T18:46:28.362Z,71.90
2018-02-09T18:48:55.958Z,71.80
2018-02-09T18:51:23.511Z,72.20
2018-02-09T18:53:51.061Z,72.90
2018-02-09T18:56:18.693Z,72.70
2018-02-09T18:58:46.263Z,73.30
2018-02-09T19:01:13.774Z,73.50
2018-02-09T19:03:41.320Z,73.10
2018-02-09T19:06:08.873Z,73.80
2018-02-09T19:08:36.425Z,73.90
2018-02-09T19:11:04.033Z,73.70
2018-02-09T19:13:31.584Z,73.50
2018-02-09T19:15:59.100Z,73.90
2018-02-09T19:18:26.669Z,74.00
2018-02-09T19:20:54.991Z,75.70
2018-02-09T19:23:22.536Z,75.10
2018-02-09T19:25:50.158Z,76.10
2018-02-09T19:28:17.709Z,76.40
2018-02-09T19:30:45.262Z,76.20
2018-02-09T19:33:12.856Z,77.70
2018-02-09T19:35:40.390Z,77.30
2018-02-09T19:38:08.002Z,77.70
2018-02-09T19:40:35.526Z,78.60
2018-02-09T19:43:03.083Z,78.60
2018-02-09T19:45:30.672Z,78.40
2018-02-09T19:47:58.252Z,78.40
2018-02-09T19:50:25.831Z,78.30
2018-02-09T19:52:53.397Z,77.70
2018-02-09T19:55:20.941Z,78.40
2018-02-09T19:57:49.288Z,78.20
2018-02-09T20:00:16.836Z,78.90
2018-02-09T20:02:44.354Z,79.00
2018-02-09T20:05:11.872Z,78.90
2018-02-09T20:07:39.439Z,78.80
2018-02-09T20:10:06.966Z,78.70
2018-02-09T20:12:34.485Z,78.60
2018-02-09T20:15:02.122Z,78.90
2018-02-09T20:17:29.720Z,79.20
2018-02-09T20:19:57.992Z,79.00
2018-02-09T20:22:25.569Z,79.10
2018-02-09T20:24:53.101Z,79.70
2018-02-09T20:27:20.661Z,79.50
2018-02-09T20:29:48.228Z,79.30
2018-02-09T20:32:15.784Z,79.10
2018-02-09T20:34:43.358Z,79.00
2018-02-09T20:37:10.920Z,78.40
2018-02-09T20:39:38.528Z,78.60
2018-02-09T20:42:06.085Z,79.00
2018-02-09T20:44:33.628Z,80.60
2018-02-09T20:47:01.165Z,78.50
2018-02-09T20:49:28.777Z,79.10
2018-02-09T20:51:56.297Z,79.00
2018-02-09T20:54:23.871Z,79.60
2018-02-09T20:56:51.397Z,79.30
2018-02-09T20:59:18.966Z,78.70
2018-02-09T21:01:46.568Z,78.80
2018-02-09T21:04:14.128Z,78.90
2018-02-09T21:06:41.686Z,79.30
2018-02-09T21:09:09.891Z,79.10
2018-02-09T21:11:37.418Z,79.10
2018-02-09T21:14:04.969Z,79.10
2018-02-09T21:16:32.501Z,78.50
2018-02-09T21:19:00.509Z,79.10
2018-02-09T21:21:28.145Z,79.00
2018-02-09T21:23:55.714Z,78.90
2018-02-09T21:26:23.253Z,78.90
2018-02-09T21:28:50.808Z,79.10
2018-02-09T21:31:18.343Z,78.70
2018-02-09T21:33:46.677Z,79.80
2018-02-09T21:36:14.204Z,79.60
2018-02-09T21:38:41.793Z,79.50
2018-02-09T21:41:09.325Z,79.70
2018-02-09T21:43:36.863Z,79.90
2018-02-09T21:46:04.444Z,79.80
2018-02-09T21:48:32.037Z,79.90
2018-02-09T21:50:59.599Z,79.80
2018-02-09T21:53:27.119Z,78.90
2018-02-09T21:55:54.674Z,78.10
2018-02-09T21:58:22.248Z,79.20
2018-02-09T22:00:49.817Z,79.80
2018-02-09T22:03:17.364Z,79.60
2018-02-09T22:05:44.905Z,79.60
2018-02-09T22:08:12.476Z,80.00
2018-02-09T22:10:40.037Z,79.60
2018-02-09T22:13:07.576Z,79.40
2018-02-09T22:15:35.141Z,79.60
2018-02-09T22:18:02.704Z,79.90
2018-02-09T22:20:30.289Z,80.00
2018-02-09T22:22:57.827Z,79.90
2018-02-09T22:25:25.379Z,79.70
2018-02-09T22:27:52.902Z,79.50
2018-02-09T22:30:20.490Z,79.70
2018-02-09T22:32:48.041Z,79.80
2018-02-09T22:35:15.592Z,79.50
2018-02-09T22:37:43.198Z,78.80
2018-02-09T22:40:10.769Z,79.20
2018-02-09T22:42:38.336Z,79.50
2018-02-09T22:45:05.904Z,79.60
2018-02-09T22:47:33.439Z,79.00
2018-02-09T22:50:00.974Z,78.80
2018-02-09T22:52:28.549Z,79.10
2018-02-09T22:54:56.096Z,78.70
2018-02-09T22:57:23.630Z,78.20
2018-02-09T22:59:51.158Z,78.80
2018-02-09T23:02:18.695Z,78.00
2018-02-09T23:04:46.243Z,78.70
2018-02-09T23:07:13.805Z,78.70
2018-02-09T23:09:41.328Z,78.80
2018-02-09T23:12:08.893Z,78.50
2018-02-09T23:14:36.427Z,78.10
2018-02-09T23:17:04.740Z,79.10
2018-02-09T23:19:32.281Z,78.40
2018-02-09T23:21:59.844Z,78.70
2018-02-09T23:24:27.382Z,78.60
2018-02-09T23:26:54.922Z,78.40
2018-02-09T23:29:22.476Z,78.20
2018-02-09T23:31:50.085Z,78.70
2018-02-09T23:34:17.624Z,78.60
2018-02-09T23:36:45.997Z,78.20
2018-02-09T23:39:13.524Z,78.80
2018-02-09T23:41:41.054Z,79.00
2018-02-09T23:44:08.598Z,79.00
2018-02-09T23:46:36.132Z,78.70
2018-02-09T23:49:03.700Z,79.20
2018-02-09T23:51:31.251Z,79.20
2018-02-09T23:53:58.806Z,78.50
2018-02-09T23:56:26.376Z,78.90
2018-02-09T23:58:53.944Z,78.40
